createdAt,value
2022-09-14T00:00:51.593Z,20
2022-09-14T00:01:51.580Z,20
2022-09-14T00:02:51.582Z,20
2022-09-14T00:03:51.557Z,20
2022-09-14T00:04:51.555Z,20
2022-09-14T00:05:51.551Z,20
2022-09-14T00:06:51.540Z,20
2022-09-14T00:07:51.521Z,20
2022-09-14T00:08:51.509Z,20
2022-09-14T00:09:51.498Z,20
2022-09-14T00:10:51.487Z,20
2022-09-14T00:11:51.481Z,20
2022-09-14T00:12:51.465Z,20
2022-09-14T00:13:51.455Z,20
2022-09-14T00:14:51.450Z,20
2022-09-14T00:15:51.438Z,20
2022-09-14T00:16:51.428Z,20
2022-09-14T00:17:51.415Z,20
2022-09-14T00:18:51.406Z,20
2022-09-14T00:19:51.395Z,20
2022-09-14T00:20:51.391Z,20
2022-09-14T00:21:51.367Z,20
2022-09-14T00:22:51.359Z,20
2022-09-14T00:23:51.352Z,20
2022-09-14T00:24:51.341Z,20
2022-09-14T00:25:51.333Z,20
2022-09-14T00:26:51.336Z,20
2022-09-14T00:27:51.308Z,20
2022-09-14T00:28:51.301Z,20
2022-09-14T00:29:51.299Z,20
2022-09-14T00:30:51.274Z,20
2022-09-14T00:31:51.271Z,20
2022-09-14T00:32:51.263Z,20
2022-09-14T00:33:51.250Z,20
2022-09-14T00:34:51.258Z,20
2022-09-14T00:35:51.256Z,20
2022-09-14T00:36:51.240Z,20
2022-09-14T00:37:51.205Z,20
2022-09-14T00:38:51.198Z,20
2022-09-14T00:39:51.217Z,20
2022-09-14T00:40:51.171Z,20
2022-09-14T00:41:51.160Z,20
2022-09-14T00:42:51.153Z,20
2022-09-14T00:43:51.148Z,20
2022-09-14T00:44:51.154Z,20
2022-09-14T00:45:51.116Z,20
2022-09-14T00:46:51.110Z,20
2022-09-14T00:47:51.095Z,20
2022-09-14T00:48:51.086Z,20
2022-09-14T00:49:51.092Z,20
2022-09-14T00:50:51.084Z,20
2022-09-14T00:51:51.057Z,20
2022-09-14T00:52:51.065Z,20
2022-09-14T00:53:51.054Z,20
2022-09-14T00:54:51.024Z,20
2022-09-14T00:55:51.016Z,20
2022-09-14T00:56:51.004Z,20
2022-09-14T00:57:50.993Z,20
2022-09-14T00:58:50.988Z,20
2022-09-14T00:59:50.987Z,20
2022-09-14T01:00:50.967Z,20
2022-09-14T01:01:50.987Z,20
2022-09-14T01:02:50.944Z,20
2022-09-14T01:03:50.938Z,20
2022-09-14T01:04:50.916Z,20
2022-09-14T01:05:50.929Z,20
2022-09-14T01:06:50.895Z,20
2022-09-14T01:07:50.906Z,20
2022-09-14T01:08:50.874Z,20
2022-09-14T01:09:50.869Z,20
2022-09-14T01:10:50.856Z,20
2022-09-14T01:11:50.844Z,20
2022-09-14T01:12:50.856Z,20
2022-09-14T01:13:50.836Z,20
2022-09-14T01:14:50.813Z,20
2022-09-14T01:15:50.824Z,20
2022-09-14T01:16:50.792Z,20
2022-09-14T01:17:50.779Z,20
2022-09-14T01:18:50.782Z,20
2022-09-14T01:19:50.758Z,20
2022-09-14T01:20:50.748Z,20
2022-09-14T01:21:50.753Z,20
2022-09-14T01:22:50.749Z,20
2022-09-14T01:23:50.718Z,20
2022-09-14T01:24:50.715Z,20
2022-09-14T01:25:50.696Z,20
2022-09-14T01:26:50.684Z,20
2022-09-14T01:27:50.687Z,20
2022-09-14T01:28:50.676Z,20
2022-09-14T01:29:50.664Z,20
2022-09-14T01:30:50.642Z,20
2022-09-14T01:31:50.634Z,20
2022-09-14T01:32:50.625Z,20
2022-09-14T01:33:50.612Z,20
2022-09-14T01:34:50.616Z,20
2022-09-14T01:35:50.599Z,20
2022-09-14T01:36:50.579Z,20
2022-09-14T01:37:50.591Z,20
2022-09-14T01:38:50.558Z,20
2022-09-14T01:39:50.565Z,20
2022-09-14T01:40:50.546Z,20
2022-09-14T01:41:50.528Z,20
2022-09-14T01:42:50.522Z,20
2022-09-14T01:43:50.516Z,20
2022-09-14T01:44:50.492Z,20
2022-09-14T01:45:50.496Z,20
2022-09-14T01:46:50.470Z,20
2022-09-14T01:47:50.518Z,20
2022-09-14T01:48:50.465Z,20
2022-09-14T01:49:50.442Z,20
2022-09-14T01:50:50.433Z,20
2022-09-14T01:51:50.426Z,20
2022-09-14T01:52:50.423Z,20
2022-09-14T01:53:50.413Z,20
2022-09-14T01:54:50.385Z,20
2022-09-14T01:55:50.377Z,20
2022-09-14T01:56:50.369Z,20
2022-09-14T01:57:50.354Z,20
2022-09-14T01:58:50.347Z,20
2022-09-14T01:59:50.337Z,20
2022-09-14T02:00:50.324Z,20
2022-09-14T02:01:50.313Z,20
2022-09-14T02:02:50.309Z,20
2022-09-14T02:03:50.293Z,20
2022-09-14T02:04:50.296Z,20
2022-09-14T02:05:50.288Z,20
2022-09-14T02:06:50.260Z,20
2022-09-14T02:07:50.264Z,20
2022-09-14T02:08:50.241Z,20
2022-09-14T02:09:50.233Z,20
2022-09-14T02:10:50.216Z,20
2022-09-14T02:11:50.207Z,20
2022-09-14T02:12:50.193Z,20
2022-09-14T02:13:50.219Z,20
2022-09-14T02:14:50.180Z,20
2022-09-14T02:15:50.159Z,20
2022-09-14T02:16:50.157Z,20
2022-09-14T02:17:50.147Z,20
2022-09-14T02:18:50.131Z,20
2022-09-14T02:19:50.119Z,20
2022-09-14T02:20:50.112Z,20
2022-09-14T02:21:50.112Z,20
2022-09-14T02:22:50.083Z,20
2022-09-14T02:23:50.075Z,20
2022-09-14T02:24:50.064Z,20
2022-09-14T02:25:50.050Z,20
2022-09-14T02:26:50.068Z,20
2022-09-14T02:27:50.033Z,20
2022-09-14T02:28:50.021Z,20
2022-09-14T02:29:50.007Z,20
2022-09-14T02:30:50.018Z,20
2022-09-14T02:31:49.989Z,20
2022-09-14T02:32:49.974Z,20
2022-09-14T02:33:49.976Z,20
2022-09-14T02:34:49.971Z,28
2022-09-14T02:35:49.940Z,20
2022-09-14T02:36:49.934Z,20
2022-09-14T02:37:49.930Z,20
2022-09-14T02:38:49.911Z,20
2022-09-14T02:39:49.904Z,20
2022-09-14T02:40:49.898Z,20
2022-09-14T02:41:49.880Z,20
2022-09-14T02:42:49.870Z,20
2022-09-14T02:43:49.864Z,20
2022-09-14T02:44:49.853Z,20
2022-09-14T02:45:49.855Z,20
2022-09-14T02:46:49.825Z,20
2022-09-14T02:47:49.826Z,20
2022-09-14T02:48:49.804Z,20
2022-09-14T02:49:49.804Z,20
2022-09-14T02:50:49.787Z,20
2022-09-14T02:51:49.777Z,20
2022-09-14T02:52:49.774Z,20
2022-09-14T02:53:49.749Z,20
2022-09-14T02:54:49.765Z,20
2022-09-14T02:55:49.738Z,20
2022-09-14T02:56:49.719Z,20
2022-09-14T02:57:49.707Z,20
2022-09-14T02:58:49.700Z,20
2022-09-14T02:59:49.704Z,20
2022-09-14T03:00:49.679Z,24
2022-09-14T03:01:49.667Z,24
2022-09-14T03:02:49.660Z,24
2022-09-14T03:03:49.644Z,24
2022-09-14T03:04:49.705Z,24
2022-09-14T03:05:49.617Z,24
2022-09-14T03:06:49.609Z,24
2022-09-14T03:07:49.597Z,24
2022-09-14T03:08:49.584Z,24
2022-09-14T03:09:49.573Z,24
2022-09-14T03:10:49.574Z,24
2022-09-14T03:11:49.551Z,24
2022-09-14T03:12:49.545Z,24
2022-09-14T03:13:49.530Z,24
2022-09-14T03:14:49.538Z,24
2022-09-14T03:15:49.512Z,24
2022-09-14T03:16:49.500Z,24
2022-09-14T03:17:49.491Z,24
2022-09-14T03:18:49.482Z,24
2022-09-14T03:19:49.469Z,24
2022-09-14T03:20:49.509Z,24
2022-09-14T03:21:49.449Z,24
2022-09-14T03:22:49.432Z,24
2022-09-14T03:23:49.551Z,24
2022-09-14T03:24:49.423Z,24
2022-09-14T03:25:49.400Z,24
2022-09-14T03:26:49.391Z,24
2022-09-14T03:27:49.375Z,24
2022-09-14T03:28:49.367Z,24
2022-09-14T03:29:49.377Z,24
2022-09-14T03:30:49.378Z,24
2022-09-14T03:31:49.333Z,24
2022-09-14T03:32:49.336Z,24
2022-09-14T03:33:49.337Z,24
2022-09-14T03:34:49.306Z,24
2022-09-14T03:35:49.304Z,24
2022-09-14T03:36:49.285Z,24
2022-09-14T03:37:49.276Z,24
2022-09-14T03:38:49.275Z,24
2022-09-14T03:39:49.243Z,24
2022-09-14T03:40:49.271Z,24
2022-09-14T03:41:49.223Z,24
2022-09-14T03:42:49.232Z,24
2022-09-14T03:43:49.206Z,24
2022-09-14T03:44:49.195Z,24
2022-09-14T03:45:49.183Z,24
2022-09-14T03:46:49.183Z,24
2022-09-14T03:47:49.156Z,24
2022-09-14T03:48:49.147Z,28
2022-09-14T03:49:49.141Z,24
2022-09-14T03:50:49.149Z,28
2022-09-14T03:51:49.116Z,24
2022-09-14T03:52:49.122Z,24
2022-09-14T03:53:49.118Z,24
2022-09-14T03:54:49.084Z,24
2022-09-14T03:55:49.084Z,24
2022-09-14T03:56:49.080Z,24
2022-09-14T03:57:49.074Z,24
2022-09-14T03:58:49.044Z,24
2022-09-14T03:59:49.061Z,24
2022-09-14T04:00:49.023Z,24
2022-09-14T04:01:49.025Z,24
2022-09-14T04:02:49.007Z,24
2022-09-14T04:03:48.989Z,24
2022-09-14T04:04:48.992Z,24
2022-09-14T04:05:48.974Z,24
2022-09-14T04:06:48.963Z,24
2022-09-14T04:07:48.949Z,24
2022-09-14T04:08:48.947Z,24
2022-09-14T04:09:48.931Z,24
2022-09-14T04:10:48.922Z,24
2022-09-14T04:11:48.931Z,24
2022-09-14T04:12:48.891Z,24
2022-09-14T04:13:48.887Z,24
2022-09-14T04:14:48.871Z,24
2022-09-14T04:15:48.866Z,24
2022-09-14T04:16:48.869Z,24
2022-09-14T04:17:48.837Z,28
2022-09-14T04:18:48.866Z,24
2022-09-14T04:19:48.830Z,24
2022-09-14T04:20:48.810Z,24
2022-09-14T04:21:48.800Z,24
2022-09-14T04:22:48.791Z,24
2022-09-14T04:23:48.791Z,24
2022-09-14T04:24:48.771Z,24
2022-09-14T04:25:48.758Z,24
2022-09-14T04:26:48.749Z,28
2022-09-14T04:27:48.740Z,28
2022-09-14T04:28:48.746Z,24
2022-09-14T04:29:48.720Z,24
2022-09-14T04:30:48.711Z,28
2022-09-14T04:31:48.702Z,28
2022-09-14T04:32:48.688Z,28
2022-09-14T04:33:48.676Z,28
2022-09-14T04:34:48.664Z,28
2022-09-14T04:35:48.670Z,24
2022-09-14T04:36:48.639Z,28
2022-09-14T04:37:48.633Z,28
2022-09-14T04:38:48.625Z,28
2022-09-14T04:39:48.646Z,28
2022-09-14T04:40:48.640Z,28
2022-09-14T04:41:48.592Z,32
2022-09-14T04:42:48.595Z,20
2022-09-14T04:43:48.573Z,20
2022-09-14T04:44:48.562Z,24
2022-09-14T04:45:48.550Z,24
2022-09-14T04:46:48.551Z,28
2022-09-14T04:47:48.548Z,32
2022-09-14T04:48:48.514Z,32
2022-09-14T04:49:48.503Z,32
2022-09-14T04:50:48.493Z,36
2022-09-14T04:51:48.494Z,36
2022-09-14T04:52:48.474Z,44
2022-09-14T04:53:48.461Z,44
2022-09-14T04:54:48.469Z,48
2022-09-14T04:55:48.461Z,48
2022-09-14T04:56:48.433Z,52
2022-09-14T04:57:48.434Z,60
2022-09-14T04:58:48.452Z,64
2022-09-14T04:59:48.395Z,72
2022-09-14T05:00:48.391Z,72
2022-09-14T05:01:48.383Z,68
2022-09-14T05:02:48.367Z,76
2022-09-14T05:03:48.368Z,84
2022-09-14T05:04:48.364Z,92
2022-09-14T05:05:48.340Z,96
2022-09-14T05:06:48.349Z,104
2022-09-14T05:07:48.308Z,116
2022-09-14T05:08:48.308Z,124
2022-09-14T05:09:48.290Z,136
2022-09-14T05:10:48.277Z,148
2022-09-14T05:11:48.273Z,160
2022-09-14T05:12:48.256Z,172
2022-09-14T05:13:48.244Z,184
2022-09-14T05:14:48.237Z,200
2022-09-14T05:15:48.253Z,208
2022-09-14T05:16:48.263Z,224
2022-09-14T05:17:48.204Z,240
2022-09-14T05:18:48.185Z,256
2022-09-14T05:19:48.185Z,272
2022-09-14T05:20:48.178Z,280
2022-09-14T05:21:48.161Z,296
2022-09-14T05:22:48.149Z,304
2022-09-14T05:23:48.140Z,316
2022-09-14T05:24:48.127Z,332
2022-09-14T05:25:48.118Z,352
2022-09-14T05:26:48.113Z,368
2022-09-14T05:27:48.095Z,392
2022-09-14T05:28:48.211Z,420
2022-09-14T05:29:48.074Z,456
2022-09-14T05:30:48.067Z,508
2022-09-14T05:31:48.069Z,528
2022-09-14T05:32:48.037Z,564
2022-09-14T05:33:48.032Z,596
2022-09-14T05:34:48.029Z,624
2022-09-14T05:35:48.008Z,636
2022-09-14T05:36:47.997Z,640
2022-09-14T05:37:47.984Z,632
2022-09-14T05:38:47.987Z,612
2022-09-14T05:39:47.966Z,592
2022-09-14T05:40:47.961Z,572
2022-09-14T05:41:47.941Z,556
2022-09-14T05:42:47.931Z,548
2022-09-14T05:43:47.924Z,544
2022-09-14T05:44:47.915Z,540
2022-09-14T05:45:47.908Z,540
2022-09-14T05:46:47.946Z,540
2022-09-14T05:47:47.882Z,548
2022-09-14T05:48:47.955Z,556
2022-09-14T05:49:47.868Z,572
2022-09-14T05:50:47.874Z,592
2022-09-14T05:51:47.839Z,624
2022-09-14T05:52:47.833Z,656
2022-09-14T05:53:47.832Z,700
2022-09-14T05:54:47.808Z,748
2022-09-14T05:55:47.793Z,820
2022-09-14T05:56:47.811Z,872
2022-09-14T05:57:47.771Z,940
2022-09-14T05:58:47.794Z,1000
2022-09-14T05:59:47.750Z,1052
2022-09-14T06:00:47.760Z,1084
2022-09-14T06:01:47.725Z,1108
2022-09-14T06:02:47.715Z,1128
2022-09-14T06:03:47.710Z,1148
2022-09-14T06:04:47.697Z,1160
2022-09-14T06:05:47.684Z,1184
2022-09-14T06:06:47.672Z,1196
2022-09-14T06:07:47.663Z,1196
2022-09-14T06:08:47.658Z,1188
2022-09-14T06:09:47.639Z,1168
2022-09-14T06:10:47.627Z,1144
2022-09-14T06:11:47.625Z,1132
2022-09-14T06:12:47.617Z,1128
2022-09-14T06:13:47.605Z,1140
2022-09-14T06:14:47.594Z,1168
2022-09-14T06:15:47.598Z,1216
2022-09-14T06:16:47.563Z,1264
2022-09-14T06:17:47.556Z,1316
2022-09-14T06:18:49.414Z,1368
2022-09-14T06:19:52.790Z,1412
2022-09-14T06:20:47.528Z,1448
2022-09-14T06:21:47.509Z,1488
2022-09-14T06:22:47.505Z,1512
2022-09-14T06:23:47.491Z,1556
2022-09-14T06:24:47.480Z,1592
2022-09-14T06:25:47.469Z,1632
2022-09-14T06:26:47.466Z,1668
2022-09-14T06:27:47.456Z,1684
2022-09-14T06:28:47.435Z,1692
2022-09-14T06:29:47.435Z,1696
2022-09-14T06:30:47.412Z,1684
2022-09-14T06:31:47.405Z,1680
2022-09-14T06:32:47.392Z,1684
2022-09-14T06:33:47.379Z,1696
2022-09-14T06:34:47.392Z,1692
2022-09-14T06:35:47.361Z,1688
2022-09-14T06:36:47.349Z,1680
2022-09-14T06:37:47.340Z,1680
2022-09-14T06:38:47.329Z,1672
2022-09-14T06:39:47.312Z,1668
2022-09-14T06:40:47.304Z,1696
2022-09-14T06:41:47.297Z,1716
2022-09-14T06:42:47.283Z,1752
2022-09-14T06:43:47.275Z,1796
2022-09-14T06:44:47.260Z,1828
2022-09-14T06:45:47.253Z,1856
2022-09-14T06:46:47.236Z,1868
2022-09-14T06:47:47.228Z,1900
2022-09-14T06:48:47.215Z,1932
2022-09-14T06:49:47.226Z,1972
2022-09-14T06:50:47.194Z,2020
2022-09-14T06:51:47.185Z,2072
2022-09-14T06:52:47.215Z,2132
2022-09-14T06:53:47.163Z,2196
2022-09-14T06:54:47.155Z,2272
2022-09-14T06:55:47.142Z,2340
2022-09-14T06:56:47.130Z,2376
2022-09-14T06:57:47.123Z,2408
2022-09-14T06:58:47.148Z,2408
2022-09-14T06:59:47.092Z,2412
2022-09-14T07:00:47.084Z,2400
2022-09-14T07:01:47.077Z,2384
2022-09-14T07:02:47.062Z,2364
2022-09-14T07:03:47.060Z,2364
2022-09-14T07:04:47.039Z,2348
2022-09-14T07:05:47.033Z,2340
2022-09-14T07:06:47.039Z,2368
2022-09-14T07:07:47.012Z,2344
2022-09-14T07:08:47.014Z,2336
2022-09-14T07:09:47.003Z,2332
2022-09-14T07:10:47.039Z,2352
2022-09-14T07:11:46.979Z,2388
2022-09-14T07:12:46.955Z,2404
2022-09-14T07:13:46.943Z,2400
2022-09-14T07:14:46.943Z,2340
2022-09-14T07:15:46.924Z,2248
2022-09-14T07:16:46.909Z,2112
2022-09-14T07:17:46.905Z,2000
2022-09-14T07:18:46.891Z,1924
2022-09-14T07:19:47.841Z,1888
2022-09-14T07:20:46.867Z,1900
2022-09-14T07:21:46.860Z,1928
2022-09-14T07:22:46.847Z,1964
2022-09-14T07:23:46.835Z,1972
2022-09-14T07:24:46.824Z,1980
2022-09-14T07:25:46.815Z,2020
2022-09-14T07:26:46.803Z,2052
2022-09-14T07:27:46.795Z,2120
2022-09-14T07:28:46.791Z,2208
2022-09-14T07:29:46.768Z,2320
2022-09-14T07:30:46.760Z,2408
2022-09-14T07:31:46.751Z,2508
2022-09-14T07:32:46.749Z,2580
2022-09-14T07:33:46.724Z,2684
2022-09-14T07:34:46.724Z,2776
2022-09-14T07:35:46.713Z,3040
2022-09-14T07:36:46.695Z,3024
2022-09-14T07:37:46.687Z,3172
2022-09-14T07:38:46.675Z,3352
2022-09-14T07:39:46.663Z,3560
2022-09-14T07:40:46.656Z,3848
2022-09-14T07:41:46.645Z,4164
2022-09-14T07:42:46.632Z,4520
2022-09-14T07:43:46.623Z,4900
2022-09-14T07:44:46.624Z,5240
2022-09-14T07:45:46.606Z,5472
2022-09-14T07:46:46.594Z,5632
2022-09-14T07:47:46.579Z,5720
2022-09-14T07:48:46.570Z,5812
2022-09-14T07:49:46.563Z,5816
2022-09-14T07:50:46.549Z,5644
2022-09-14T07:51:46.537Z,5468
2022-09-14T07:52:46.538Z,5480
2022-09-14T07:53:46.517Z,5500
2022-09-14T07:54:46.506Z,5440
2022-09-14T07:55:46.493Z,5328
2022-09-14T07:56:46.482Z,5220
2022-09-14T07:57:46.484Z,4944
2022-09-14T07:58:46.468Z,4556
2022-09-14T07:59:46.451Z,4092
2022-09-14T08:00:46.444Z,3680
2022-09-14T08:01:46.435Z,3332
2022-09-14T08:02:46.444Z,3108
2022-09-14T08:03:46.416Z,3024
2022-09-14T08:04:46.401Z,3024
2022-09-14T08:05:46.388Z,3164
2022-09-14T08:06:46.375Z,3388
2022-09-14T08:07:46.366Z,3676
2022-09-14T08:08:46.359Z,3984
2022-09-14T08:09:46.351Z,4312
2022-09-14T08:10:46.340Z,4764
2022-09-14T08:11:46.331Z,5284
2022-09-14T08:12:46.347Z,5812
2022-09-14T08:13:46.305Z,6220
2022-09-14T08:14:46.294Z,6468
2022-09-14T08:15:46.291Z,6528
2022-09-14T08:16:46.276Z,6352
2022-09-14T08:17:46.269Z,6344
2022-09-14T08:18:46.250Z,6400
2022-09-14T08:19:46.240Z,5740
2022-09-14T08:20:46.234Z,5376
2022-09-14T08:21:46.239Z,5108
2022-09-14T08:22:46.211Z,4892
2022-09-14T08:23:46.205Z,4796
2022-09-14T08:24:46.193Z,4736
2022-09-14T08:25:46.176Z,4724
2022-09-14T08:26:46.170Z,4656
2022-09-14T08:27:46.162Z,4568
2022-09-14T08:28:46.150Z,4440
2022-09-14T08:29:46.137Z,4308
2022-09-14T08:30:46.179Z,4216
2022-09-14T08:31:46.139Z,3964
2022-09-14T08:32:46.104Z,3776
2022-09-14T08:33:46.095Z,3576
2022-09-14T08:34:46.086Z,3428
2022-09-14T08:35:46.075Z,3320
2022-09-14T08:36:46.081Z,3388
2022-09-14T08:37:46.068Z,3348
2022-09-14T08:38:46.097Z,3472
2022-09-14T08:39:46.033Z,3516
2022-09-14T08:40:46.024Z,3548
2022-09-14T08:41:46.025Z,3624
2022-09-14T08:42:46.010Z,3772
2022-09-14T08:43:46.052Z,3800
2022-09-14T08:44:46.010Z,3816
2022-09-14T08:45:46.025Z,3896
2022-09-14T08:46:46.034Z,3972
2022-09-14T08:47:45.957Z,4072
2022-09-14T08:48:45.943Z,4216
2022-09-14T08:49:45.943Z,4440
2022-09-14T08:50:45.917Z,4668
2022-09-14T08:51:45.913Z,4796
2022-09-14T08:52:45.892Z,4936
2022-09-14T08:53:45.884Z,4992
2022-09-14T08:54:45.883Z,5244
2022-09-14T08:55:45.862Z,5640
2022-09-14T08:56:45.856Z,6148
2022-09-14T08:57:45.862Z,6572
2022-09-14T08:58:45.852Z,6868
2022-09-14T08:59:45.819Z,7004
2022-09-14T09:00:45.810Z,7076
2022-09-14T09:01:45.814Z,7020
2022-09-14T09:02:45.787Z,7004
2022-09-14T09:03:45.794Z,6844
2022-09-14T09:07:45.768Z,5992
2022-09-14T09:08:45.728Z,5480
2022-09-14T09:09:45.712Z,5160
2022-09-14T09:10:45.703Z,5200
2022-09-14T09:11:45.718Z,5584
2022-09-14T09:12:45.693Z,6008
2022-09-14T09:13:45.684Z,6560
2022-09-14T09:14:45.658Z,7268
2022-09-14T09:15:45.648Z,7888
2022-09-14T09:16:45.635Z,8428
2022-09-14T09:17:45.632Z,8724
2022-09-14T09:18:45.629Z,8812
2022-09-14T09:19:45.605Z,9240
2022-09-14T09:20:45.603Z,9504
2022-09-14T09:21:45.584Z,9072
2022-09-14T09:22:45.581Z,8448
2022-09-14T09:23:45.563Z,7716
2022-09-14T09:24:45.566Z,6944
2022-09-14T09:25:45.578Z,6456
2022-09-14T09:26:45.547Z,6280
2022-09-14T09:27:45.524Z,6176
2022-09-14T09:28:45.510Z,5928
2022-09-14T09:29:50.521Z,5440
2022-09-14T09:30:46.493Z,4816
2022-09-14T09:31:45.509Z,4252
2022-09-14T09:32:45.488Z,3780
2022-09-14T09:33:45.497Z,3320
2022-09-14T09:34:45.447Z,3076
2022-09-14T09:35:45.437Z,2908
2022-09-14T09:36:45.439Z,2812
2022-09-14T09:37:45.416Z,2756
2022-09-14T09:38:45.415Z,2704
2022-09-14T09:39:45.403Z,2660
2022-09-14T09:40:45.387Z,2628
2022-09-14T09:41:45.387Z,2596
2022-09-14T09:42:45.370Z,2552
2022-09-14T09:43:45.362Z,2512
2022-09-14T09:44:45.349Z,2500
2022-09-14T09:45:45.339Z,2464
2022-09-14T09:46:45.372Z,2400
2022-09-14T09:47:45.308Z,2336
2022-09-14T09:48:45.294Z,2308
2022-09-14T09:49:45.327Z,2300
2022-09-14T09:50:45.277Z,2336
2022-09-14T09:51:45.263Z,2336
2022-09-14T09:52:45.249Z,2360
2022-09-14T09:53:45.254Z,2400
2022-09-14T09:54:45.233Z,2444
2022-09-14T09:55:45.218Z,2432
2022-09-14T09:56:45.220Z,2444
2022-09-14T09:57:45.196Z,2544
2022-09-14T09:58:45.189Z,2648
2022-09-14T09:59:45.185Z,2684
2022-09-14T10:00:45.213Z,2780
2022-09-14T10:01:45.156Z,2804
2022-09-14T10:02:45.140Z,2760
2022-09-14T10:03:45.132Z,2776
2022-09-14T10:04:45.119Z,2836
2022-09-14T10:05:45.113Z,2984
2022-09-14T10:06:45.101Z,3068
2022-09-14T10:07:45.088Z,3156
2022-09-14T10:08:45.100Z,3260
2022-09-14T10:09:45.068Z,3392
2022-09-14T10:10:45.063Z,3492
2022-09-14T10:11:45.058Z,3428
2022-09-14T10:12:45.032Z,3304
2022-09-14T10:13:45.030Z,3204
2022-09-14T10:14:45.012Z,3112
2022-09-14T10:15:45.004Z,3104
2022-09-14T10:16:44.990Z,3172
2022-09-14T10:17:44.978Z,3204
2022-09-14T10:18:44.973Z,3176
2022-09-14T10:19:44.960Z,3212
2022-09-14T10:20:44.949Z,3308
2022-09-14T10:21:44.938Z,3376
2022-09-14T10:22:44.932Z,3464
2022-09-14T10:23:44.923Z,3548
2022-09-14T10:24:44.926Z,3560
2022-09-14T10:25:44.907Z,3624
2022-09-14T10:26:44.903Z,3732
2022-09-14T10:27:44.882Z,3900
2022-09-14T10:28:44.873Z,4048
2022-09-14T10:29:44.970Z,4212
2022-09-14T10:30:44.864Z,4356
2022-09-14T10:31:44.839Z,4488
2022-09-14T10:32:44.825Z,4552
2022-09-14T10:33:44.821Z,4608
2022-09-14T10:34:44.807Z,4644
2022-09-14T10:35:44.814Z,4664
2022-09-14T10:36:44.788Z,4748
2022-09-14T10:37:44.790Z,4804
2022-09-14T10:38:44.769Z,4872
2022-09-14T10:39:44.751Z,4896
2022-09-14T10:40:44.746Z,4848
2022-09-14T10:41:44.734Z,4752
2022-09-14T10:42:44.725Z,4664
2022-09-14T10:43:44.725Z,4532
2022-09-14T10:44:44.726Z,4300
2022-09-14T10:45:44.706Z,4076
2022-09-14T10:46:44.694Z,3900
2022-09-14T10:47:44.673Z,3784
2022-09-14T10:48:44.657Z,3664
2022-09-14T10:49:44.650Z,3556
2022-09-14T10:50:44.660Z,3436
2022-09-14T10:51:44.624Z,3292
2022-09-14T10:52:44.616Z,3152
2022-09-14T10:53:44.618Z,3064
2022-09-14T10:54:44.592Z,2988
2022-09-14T10:55:44.601Z,2948
2022-09-14T10:56:44.581Z,2920
2022-09-14T10:57:44.562Z,2916
2022-09-14T10:58:44.559Z,2912
2022-09-14T10:59:44.550Z,2916
2022-09-14T11:00:44.532Z,2908
2022-09-14T11:01:44.521Z,2896
2022-09-14T11:02:44.512Z,2876
2022-09-14T11:03:44.503Z,2844
2022-09-14T11:04:44.494Z,2784
2022-09-14T11:05:44.479Z,2696
2022-09-14T11:06:44.468Z,2628
2022-09-14T11:07:44.471Z,2572
2022-09-14T11:08:44.447Z,2540
2022-09-14T11:09:44.439Z,2532
2022-09-14T11:10:44.429Z,2544
2022-09-14T11:11:44.435Z,2544
2022-09-14T11:12:44.408Z,2572
2022-09-14T11:13:44.410Z,2584
2022-09-14T11:14:44.383Z,2608
2022-09-14T11:15:44.378Z,2608
2022-09-14T11:16:44.369Z,2604
2022-09-14T11:17:44.356Z,2592
2022-09-14T11:18:44.347Z,2572
2022-09-14T11:19:44.334Z,2556
2022-09-14T11:20:44.325Z,2536
2022-09-14T11:21:44.314Z,2516
2022-09-14T11:22:44.315Z,2496
2022-09-14T11:23:44.287Z,2472
2022-09-14T11:24:44.282Z,2464
2022-09-14T11:25:44.269Z,2464
2022-09-14T11:26:44.271Z,2468
2022-09-14T11:27:44.249Z,2480
2022-09-14T11:28:44.236Z,2492
2022-09-14T11:29:44.232Z,2508
2022-09-14T11:30:44.235Z,2520
2022-09-14T11:31:44.205Z,2520
2022-09-14T11:32:44.193Z,2528
2022-09-14T11:33:44.190Z,2528
2022-09-14T11:34:44.185Z,2516
2022-09-14T11:35:44.165Z,2512
2022-09-14T11:36:44.167Z,2488
2022-09-14T11:37:44.167Z,2456
2022-09-14T11:38:44.158Z,2440
2022-09-14T11:39:44.125Z,2424
2022-09-14T11:40:44.112Z,2412
2022-09-14T11:41:44.137Z,2412
2022-09-14T11:42:44.093Z,2404
2022-09-14T11:43:44.079Z,2380
2022-09-14T11:44:44.071Z,2372
2022-09-14T11:45:44.081Z,2384
2022-09-14T11:46:44.056Z,2384
2022-09-14T11:47:44.042Z,2380
2022-09-14T11:48:44.041Z,2376
2022-09-14T11:49:44.015Z,2364
2022-09-14T11:50:44.005Z,2360
2022-09-14T11:51:43.995Z,2352
2022-09-14T11:52:43.985Z,2364
2022-09-14T11:53:43.984Z,2380
2022-09-14T11:54:43.989Z,2400
2022-09-14T11:55:43.969Z,2408
2022-09-14T11:56:43.950Z,2404
2022-09-14T11:57:43.929Z,2388
2022-09-14T11:58:43.953Z,2376
2022-09-14T11:59:43.917Z,2364
2022-09-14T12:00:43.942Z,2364
2022-09-14T12:01:43.913Z,2368
2022-09-14T12:02:43.897Z,2360
2022-09-14T12:03:43.894Z,2344
2022-09-14T12:04:43.859Z,2336
2022-09-14T12:05:43.874Z,2324
2022-09-14T12:06:43.840Z,2300
2022-09-14T12:07:43.827Z,2296
2022-09-14T12:08:43.817Z,2292
2022-09-14T12:09:43.814Z,2280
2022-09-14T12:10:43.797Z,2276
2022-09-14T12:11:43.793Z,2248
2022-09-14T12:12:43.809Z,2204
2022-09-14T12:13:43.778Z,2124
2022-09-14T12:14:43.762Z,2076
2022-09-14T12:15:43.788Z,2096
2022-09-14T12:16:43.733Z,2156
2022-09-14T12:17:43.731Z,2188
2022-09-14T12:18:43.712Z,2184
2022-09-14T12:19:43.711Z,2184
2022-09-14T12:20:43.700Z,2188
2022-09-14T12:21:43.689Z,2176
2022-09-14T12:22:43.687Z,2184
2022-09-14T12:23:43.670Z,2180
2022-09-14T12:24:43.661Z,2192
2022-09-14T12:25:44.370Z,2200
2022-09-14T12:26:43.630Z,2200
2022-09-14T12:27:43.626Z,2188
2022-09-14T12:28:43.612Z,2184
2022-09-14T12:29:43.599Z,2180
2022-09-14T12:30:43.589Z,2180
2022-09-14T12:31:43.587Z,2176
2022-09-14T12:32:43.572Z,2180
2022-09-14T12:33:43.557Z,2176
2022-09-14T12:34:43.547Z,2156
2022-09-14T12:35:43.541Z,2120
2022-09-14T12:36:43.529Z,2072
2022-09-14T12:37:43.522Z,2024
2022-09-14T12:38:43.528Z,1992
2022-09-14T12:39:43.499Z,1976
2022-09-14T12:40:43.482Z,1972
2022-09-14T12:41:43.476Z,1968
2022-09-14T12:42:43.465Z,1984
2022-09-14T12:43:43.472Z,2004
2022-09-14T12:44:43.465Z,2036
2022-09-14T12:45:43.434Z,2068
2022-09-14T12:46:43.418Z,2096
2022-09-14T12:47:43.412Z,2132
2022-09-14T12:48:43.397Z,2164
2022-09-14T12:49:43.388Z,2208
2022-09-14T12:50:43.378Z,2256
2022-09-14T12:51:43.377Z,2312
2022-09-14T12:52:43.370Z,2356
2022-09-14T12:53:43.346Z,2384
2022-09-14T12:54:43.342Z,2400
2022-09-14T12:55:43.323Z,2384
2022-09-14T12:56:43.316Z,2364
2022-09-14T12:57:43.320Z,2340
2022-09-14T12:58:43.292Z,2336
2022-09-14T12:59:43.282Z,2348
2022-09-14T13:00:43.276Z,2372
2022-09-14T13:01:43.263Z,2400
2022-09-14T13:02:43.252Z,2436
2022-09-14T13:03:43.241Z,2460
2022-09-14T13:04:43.228Z,2476
2022-09-14T13:05:43.223Z,2480
2022-09-14T13:06:43.209Z,2504
2022-09-14T13:07:43.204Z,2460
2022-09-14T13:08:43.189Z,2448
2022-09-14T13:09:43.191Z,2444
2022-09-14T13:10:43.163Z,2440
2022-09-14T13:11:43.156Z,2448
2022-09-14T13:12:43.183Z,2476
2022-09-14T13:13:43.134Z,2508
2022-09-14T13:14:43.122Z,2556
2022-09-14T13:15:43.112Z,2600
2022-09-14T13:16:43.135Z,2664
2022-09-14T13:17:43.091Z,2724
2022-09-14T13:18:43.085Z,2788
2022-09-14T13:19:43.065Z,2840
2022-09-14T13:20:43.063Z,2900
2022-09-14T13:21:43.065Z,2960
2022-09-14T13:22:43.036Z,3024
2022-09-14T13:23:43.032Z,3088
2022-09-14T13:24:43.019Z,3132
2022-09-14T13:25:43.002Z,3156
2022-09-14T13:26:42.990Z,3168
2022-09-14T13:27:42.995Z,3172
2022-09-14T13:28:42.967Z,3184
2022-09-14T13:29:42.975Z,3184
2022-09-14T13:30:42.961Z,3192
2022-09-14T13:31:42.983Z,3196
2022-09-14T13:32:42.932Z,3196
2022-09-14T13:33:42.920Z,3164
2022-09-14T13:34:42.904Z,3116
2022-09-14T13:35:42.894Z,3052
2022-09-14T13:36:42.882Z,2976
2022-09-14T13:37:42.906Z,2924
2022-09-14T13:38:42.861Z,2860
2022-09-14T13:39:42.851Z,2808
2022-09-14T13:40:42.841Z,2760
2022-09-14T13:41:42.842Z,2728
2022-09-14T13:42:42.813Z,2744
2022-09-14T13:43:42.804Z,2776